sensor_id;sensor_type;location;lat;lon;timestamp;temperature;humidity
4962;DHT22;2496;52.468;13.342;2023-05-07T00:01:52;8.70;99.90
4962;DHT22;2496;52.468;13.342;2023-05-07T00:04:19;8.70;99.90
4962;DHT22;2496;52.468;13.342;2023-05-07T00:06:46;8.80;99.90
4962;DHT22;2496;52.468;13.342;2023-05-07T00:09:13;8.80;99.90
4962;DHT22;2496;52.468;13.342;2023-05-07T00:11:40;8.80;99.90
4962;DHT22;2496;52.468;13.342;2023-05-07T00:14:07;8.80;99.90
4962;DHT22;2496;52.468;13.342;2023-05-07T00:16:35;8.80;99.90
4962;DHT22;2496;52.468;13.342;2023-05-07T00:19:02;8.90;99.90
4962;DHT22;2496;52.468;13.342;2023-05-07T00:21:29;8.90;99.90
4962;DHT22;2496;52.468;13.342;2023-05-07T00:23:56;8.80;99.90
4962;DHT22;2496;52.468;13.342;2023-05-07T00:26:23;8.90;99.90
4962;DHT22;2496;52.468;13.342;2023-05-07T00:28:50;8.90;99.90
4962;DHT22;2496;52.468;13.342;2023-05-07T00:31:17;8.90;99.90
4962;DHT22;2496;52.468;13.342;2023-05-07T00:33:45;8.90;99.90
4962;DHT22;2496;52.468;13.342;2023-05-07T00:36:12;8.90;99.90
4962;DHT22;2496;52.468;13.342;2023-05-07T00:38:39;8.90;99.90
4962;DHT22;2496;52.468;13.342;2023-05-07T00:41:06;8.80;99.90
4962;DHT22;2496;52.468;13.342;2023-05-07T00:43:33;8.80;99.90
4962;DHT22;2496;52.468;13.342;2023-05-07T00:46:00;8.80;99.90
4962;DHT22;2496;52.468;13.342;2023-05-07T00:48:27;8.80;99.90
4962;DHT22;2496;52.468;13.342;2023-05-07T00:50:56;8.80;99.90
4962;DHT22;2496;52.468;13.342;2023-05-07T00:53:23;8.80;99.90
4962;DHT22;2496;52.468;13.342;2023-05-07T00:55:52;8.80;99.90
4962;DHT22;2496;52.468;13.342;2023-05-07T00:58:19;8.80;99.90
4962;DHT22;2496;52.468;13.342;2023-05-07T01:00:47;8.70;99.90
4962;DHT22;2496;52.468;13.342;2023-05-07T01:03:14;8.80;99.90
4962;DHT22;2496;52.468;13.342;2023-05-07T01:05:42;8.80;99.90
4962;DHT22;2496;52.468;13.342;2023-05-07T01:08:11;8.70;99.90
4962;DHT22;2496;52.468;13.342;2023-05-07T01:10:39;8.80;99.90
4962;DHT22;2496;52.468;13.342;2023-05-07T01:13:09;8.80;99.90
4962;DHT22;2496;52.468;13.342;2023-05-07T01:15:36;8.90;99.90
4962;DHT22;2496;52.468;13.342;2023-05-07T01:18:04;8.90;99.90
4962;DHT22;2496;52.468;13.342;2023-05-07T01:20:32;8.90;99.90
4962;DHT22;2496;52.468;13.342;2023-05-07T01:23:01;9.00;99.90
4962;DHT22;2496;52.468;13.342;2023-05-07T01:25:31;8.90;99.90
4962;DHT22;2496;52.468;13.342;2023-05-07T01:27:58;8.90;99.90
4962;DHT22;2496;52.468;13.342;2023-05-07T01:30:27;8.80;99.90
4962;DHT22;2496;52.468;13.342;2023-05-07T01:32:58;8.70;99.90
4962;DHT22;2496;52.468;13.342;2023-05-07T01:35:28;8.70;99.90
4962;DHT22;2496;52.468;13.342;2023-05-07T01:37:56;8.70;99.90
4962;DHT22;2496;52.468;13.342;2023-05-07T01:40:25;8.70;99.90
4962;DHT22;2496;52.468;13.342;2023-05-07T01:42:53;8.70;99.90
4962;DHT22;2496;52.468;13.342;2023-05-07T01:45:20;8.70;99.90
4962;DHT22;2496;52.468;13.342;2023-05-07T01:47:48;8.70;99.90
4962;DHT22;2496;52.468;13.342;2023-05-07T01:50:17;8.70;99.90
4962;DHT22;2496;52.468;13.342;2023-05-07T01:52:45;8.80;99.90
4962;DHT22;2496;52.468;13.342;2023-05-07T01:55:12;8.80;99.90
4962;DHT22;2496;52.468;13.342;2023-05-07T01:57:41;8.80;99.90
4962;DHT22;2496;52.468;13.342;2023-05-07T02:00:08;8.80;99.90
4962;DHT22;2496;52.468;13.342;2023-05-07T02:02:35;8.70;99.90
4962;DHT22;2496;52.468;13.342;2023-05-07T02:05:04;8.70;99.90
4962;DHT22;2496;52.468;13.342;2023-05-07T02:07:31;8.70;99.90
4962;DHT22;2496;52.468;13.342;2023-05-07T02:09:58;8.70;99.90
4962;DHT22;2496;52.468;13.342;2023-05-07T02:12:25;8.80;99.90
4962;DHT22;2496;52.468;13.342;2023-05-07T02:14:53;8.70;99.90
4962;DHT22;2496;52.468;13.342;2023-05-07T02:17:20;8.70;99.90
4962;DHT22;2496;52.468;13.342;2023-05-07T02:19:47;8.80;99.90
4962;DHT22;2496;52.468;13.342;2023-05-07T02:22:14;8.80;99.90
4962;DHT22;2496;52.468;13.342;2023-05-07T02:24:41;8.70;99.90
4962;DHT22;2496;52.468;13.342;2023-05-07T02:27:10;8.80;99.90
4962;DHT22;2496;52.468;13.342;2023-05-07T02:29:37;8.80;99.90
4962;DHT22;2496;52.468;13.342;2023-05-07T02:32:05;8.80;99.90
4962;DHT22;2496;52.468;13.342;2023-05-07T02:34:32;8.80;99.90
4962;DHT22;2496;52.468;13.342;2023-05-07T02:36:59;8.80;99.90
4962;DHT22;2496;52.468;13.342;2023-05-07T02:39:26;8.80;99.90
4962;DHT22;2496;52.468;13.342;2023-05-07T02:41:53;8.80;99.90
4962;DHT22;2496;52.468;13.342;2023-05-07T02:44:20;8.70;99.90
4962;DHT22;2496;52.468;13.342;2023-05-07T02:46:47;8.70;99.90
4962;DHT22;2496;52.468;13.342;2023-05-07T02:49:15;8.70;99.90
4962;DHT22;2496;52.468;13.342;2023-05-07T02:51:42;8.70;99.90
4962;DHT22;2496;52.468;13.342;2023-05-07T02:54:09;8.60;99.90
4962;DHT22;2496;52.468;13.342;2023-05-07T02:56:36;8.60;99.90
4962;DHT22;2496;52.468;13.342;2023-05-07T02:59:03;8.60;99.90
4962;DHT22;2496;52.468;13.342;2023-05-07T03:01:30;8.60;99.90
4962;DHT22;2496;52.468;13.342;2023-05-07T03:03:57;8.60;99.90
4962;DHT22;2496;52.468;13.342;2023-05-07T03:06:25;8.70;99.90
4962;DHT22;2496;52.468;13.342;2023-05-07T03:08:52;8.70;99.90
4962;DHT22;2496;52.468;13.342;2023-05-07T03:11:19;8.70;99.90
4962;DHT22;2496;52.468;13.342;2023-05-07T03:13:46;8.70;99.90
4962;DHT22;2496;52.468;13.342;2023-05-07T03:16:15;8.80;99.90
4962;DHT22;2496;52.468;13.342;2023-05-07T03:18:42;8.70;99.90
4962;DHT22;2496;52.468;13.342;2023-05-07T03:21:10;8.80;99.90
4962;DHT22;2496;52.468;13.342;2023-05-07T03:23:38;8.70;99.90
4962;DHT22;2496;52.468;13.342;2023-05-07T03:26:05;8.80;99.90
4962;DHT22;2496;52.468;13.342;2023-05-07T03:28:32;8.70;99.90
4962;DHT22;2496;52.468;13.342;2023-05-07T03:30:59;8.70;99.90
4962;DHT22;2496;52.468;13.342;2023-05-07T03:33:26;8.80;99.90
4962;DHT22;2496;52.468;13.342;2023-05-07T03:35:54;8.70;99.90
4962;DHT22;2496;52.468;13.342;2023-05-07T03:38:21;8.70;99.90
4962;DHT22;2496;52.468;13.342;2023-05-07T03:40:49;8.70;99.90
4962;DHT22;2496;52.468;13.342;2023-05-07T03:43:16;8.80;99.90
4962;DHT22;2496;52.468;13.342;2023-05-07T03:45:43;8.70;99.90
4962;DHT22;2496;52.468;13.342;2023-05-07T03:48:10;8.70;99.90
4962;DHT22;2496;52.468;13.342;2023-05-07T03:50:37;8.70;99.90
4962;DHT22;2496;52.468;13.342;2023-05-07T03:53:04;8.70;99.90
4962;DHT22;2496;52.468;13.342;2023-05-07T03:55:31;8.70;99.90
4962;DHT22;2496;52.468;13.342;2023-05-07T03:58:00;8.70;99.90
4962;DHT22;2496;52.468;13.342;2023-05-07T04:00:27;8.70;99.90
4962;DHT22;2496;52.468;13.342;2023-05-07T04:02:54;8.70;99.90
4962;DHT22;2496;52.468;13.342;2023-05-07T04:05:21;8.70;99.90
4962;DHT22;2496;52.468;13.342;2023-05-07T04:07:48;8.70;99.90
4962;DHT22;2496;52.468;13.342;2023-05-07T04:10:15;8.70;99.90
4962;DHT22;2496;52.468;13.342;2023-05-07T04:12:42;8.70;99.90
4962;DHT22;2496;52.468;13.342;2023-05-07T04:15:10;8.70;99.90
4962;DHT22;2496;52.468;13.342;2023-05-07T04:17:37;8.70;99.90
4962;DHT22;2496;52.468;13.342;2023-05-07T04:20:06;8.60;99.90
4962;DHT22;2496;52.468;13.342;2023-05-07T04:22:33;8.60;99.90
4962;DHT22;2496;52.468;13.342;2023-05-07T04:25:00;8.60;99.90
4962;DHT22;2496;52.468;13.342;2023-05-07T04:27:27;8.70;99.90
4962;DHT22;2496;52.468;13.342;2023-05-07T04:29:54;8.70;99.90
4962;DHT22;2496;52.468;13.342;2023-05-07T04:32:23;8.60;99.90
4962;DHT22;2496;52.468;13.342;2023-05-07T04:34:51;8.60;99.90
4962;DHT22;2496;52.468;13.342;2023-05-07T04:37:18;8.60;99.90
4962;DHT22;2496;52.468;13.342;2023-05-07T04:39:45;8.60;99.90
4962;DHT22;2496;52.468;13.342;2023-05-07T04:42:14;8.60;99.90
4962;DHT22;2496;52.468;13.342;2023-05-07T04:44:41;8.60;99.90
4962;DHT22;2496;52.468;13.342;2023-05-07T04:47:08;8.60;99.90
4962;DHT22;2496;52.468;13.342;2023-05-07T04:49:38;8.60;99.90
4962;DHT22;2496;52.468;13.342;2023-05-07T04:52:05;8.70;99.90
4962;DHT22;2496;52.468;13.342;2023-05-07T04:54:32;8.60;99.90
4962;DHT22;2496;52.468;13.342;2023-05-07T04:56:59;8.70;99.90
4962;DHT22;2496;52.468;13.342;2023-05-07T04:59:26;8.70;99.90
4962;DHT22;2496;52.468;13.342;2023-05-07T05:01:53;8.70;99.90
4962;DHT22;2496;52.468;13.342;2023-05-07T05:04:20;8.70;99.90
4962;DHT22;2496;52.468;13.342;2023-05-07T05:06:48;8.70;99.90
4962;DHT22;2496;52.468;13.342;2023-05-07T05:09:15;8.70;99.90
4962;DHT22;2496;52.468;13.342;2023-05-07T05:11:43;8.70;99.90
4962;DHT22;2496;52.468;13.342;2023-05-07T05:14:10;8.80;99.90
4962;DHT22;2496;52.468;13.342;2023-05-07T05:16:36;8.90;99.90
4962;DHT22;2496;52.468;13.342;2023-05-07T05:19:03;8.90;99.90
4962;DHT22;2496;52.468;13.342;2023-05-07T05:21:31;8.90;99.90
4962;DHT22;2496;52.468;13.342;2023-05-07T05:23:59;9.00;99.90
4962;DHT22;2496;52.468;13.342;2023-05-07T05:26:26;9.00;99.90
4962;DHT22;2496;52.468;13.342;2023-05-07T05:28:53;9.00;99.90
4962;DHT22;2496;52.468;13.342;2023-05-07T05:31:20;9.00;99.90
4962;DHT22;2496;52.468;13.342;2023-05-07T05:33:47;9.00;99.90
4962;DHT22;2496;52.468;13.342;2023-05-07T05:36:14;9.00;99.90
4962;DHT22;2496;52.468;13.342;2023-05-07T05:38:41;9.10;99.90
4962;DHT22;2496;52.468;13.342;2023-05-07T05:41:10;9.00;99.90
4962;DHT22;2496;52.468;13.342;2023-05-07T05:43:37;9.00;99.90
4962;DHT22;2496;52.468;13.342;2023-05-07T05:46:04;9.10;99.90
4962;DHT22;2496;52.468;13.342;2023-05-07T05:48:31;9.10;99.90
4962;DHT22;2496;52.468;13.342;2023-05-07T05:50:58;9.10;99.90
4962;DHT22;2496;52.468;13.342;2023-05-07T05:53:25;9.10;99.90
4962;DHT22;2496;52.468;13.342;2023-05-07T05:55:52;9.10;99.90
4962;DHT22;2496;52.468;13.342;2023-05-07T05:58:20;9.10;99.90
4962;DHT22;2496;52.468;13.342;2023-05-07T06:00:47;9.20;99.90
4962;DHT22;2496;52.468;13.342;2023-05-07T06:03:17;9.30;99.90
4962;DHT22;2496;52.468;13.342;2023-05-07T06:05:44;9.30;99.90
4962;DHT22;2496;52.468;13.342;2023-05-07T06:08:11;9.30;99.90
4962;DHT22;2496;52.468;13.342;2023-05-07T06:10:38;9.30;99.90
4962;DHT22;2496;52.468;13.342;2023-05-07T06:13:05;9.40;99.90
4962;DHT22;2496;52.468;13.342;2023-05-07T06:15:34;9.50;99.90
4962;DHT22;2496;52.468;13.342;2023-05-07T06:18:01;9.50;99.90
4962;DHT22;2496;52.468;13.342;2023-05-07T06:20:29;9.60;99.90
4962;DHT22;2496;52.468;13.342;2023-05-07T06:22:56;9.60;99.90
4962;DHT22;2496;52.468;13.342;2023-05-07T06:25:23;9.80;99.90
4962;DHT22;2496;52.468;13.342;2023-05-07T06:27:50;9.80;99.90
4962;DHT22;2496;52.468;13.342;2023-05-07T06:30:17;9.80;99.90
4962;DHT22;2496;52.468;13.342;2023-05-07T06:32:45;9.80;99.90
4962;DHT22;2496;52.468;13.342;2023-05-07T06:35:12;9.90;99.90
4962;DHT22;2496;52.468;13.342;2023-05-07T06:37:39;10.00;99.90
4962;DHT22;2496;52.468;13.342;2023-05-07T06:40:08;9.90;99.90
4962;DHT22;2496;52.468;13.342;2023-05-07T06:42:36;9.80;99.90
4962;DHT22;2496;52.468;13.342;2023-05-07T06:45:04;9.90;99.90
4962;DHT22;2496;52.468;13.342;2023-05-07T06:47:31;9.90;99.90
4962;DHT22;2496;52.468;13.342;2023-05-07T06:49:59;9.90;99.90
4962;DHT22;2496;52.468;13.342;2023-05-07T06:52:26;9.90;99.90
4962;DHT22;2496;52.468;13.342;2023-05-07T06:54:53;10.00;99.90
4962;DHT22;2496;52.468;13.342;2023-05-07T06:57:20;10.00;99.90
4962;DHT22;2496;52.468;13.342;2023-05-07T06:59:47;10.00;99.90
4962;DHT22;2496;52.468;13.342;2023-05-07T07:02:14;10.10;99.90
4962;DHT22;2496;52.468;13.342;2023-05-07T07:04:41;10.10;99.90
4962;DHT22;2496;52.468;13.342;2023-05-07T07:07:09;10.00;99.90
4962;DHT22;2496;52.468;13.342;2023-05-07T07:09:36;10.00;99.90
4962;DHT22;2496;52.468;13.342;2023-05-07T07:12:04;10.00;99.90
4962;DHT22;2496;52.468;13.342;2023-05-07T07:14:31;10.00;99.90
4962;DHT22;2496;52.468;13.342;2023-05-07T07:16:58;10.10;99.90
4962;DHT22;2496;52.468;13.342;2023-05-07T07:19:26;10.30;99.90
4962;DHT22;2496;52.468;13.342;2023-05-07T07:21:53;10.50;99.90
4962;DHT22;2496;52.468;13.342;2023-05-07T07:24:21;10.80;99.90
4962;DHT22;2496;52.468;13.342;2023-05-07T07:26:48;10.90;99.90
4962;DHT22;2496;52.468;13.342;2023-05-07T07:29:15;11.00;99.90
4962;DHT22;2496;52.468;13.342;2023-05-07T07:31:44;11.00;99.90
4962;DHT22;2496;52.468;13.342;2023-05-07T07:34:11;11.10;99.90
4962;DHT22;2496;52.468;13.342;2023-05-07T07:36:38;11.00;99.90
4962;DHT22;2496;52.468;13.342;2023-05-07T07:39:05;11.00;99.90
4962;DHT22;2496;52.468;13.342;2023-05-07T07:41:36;11.00;99.90
4962;DHT22;2496;52.468;13.342;2023-05-07T07:44:03;10.90;99.90
4962;DHT22;2496;52.468;13.342;2023-05-07T07:46:33;11.10;99.90
4962;DHT22;2496;52.468;13.342;2023-05-07T07:49:00;11.20;99.90
4962;DHT22;2496;52.468;13.342;2023-05-07T07:51:27;11.40;99.90
4962;DHT22;2496;52.468;13.342;2023-05-07T07:53:54;11.50;99.90
4962;DHT22;2496;52.468;13.342;2023-05-07T07:56:23;11.80;99.90
4962;DHT22;2496;52.468;13.342;2023-05-07T07:58:51;12.20;99.90
4962;DHT22;2496;52.468;13.342;2023-05-07T08:01:18;12.50;99.90
4962;DHT22;2496;52.468;13.342;2023-05-07T08:03:45;12.90;99.90
4962;DHT22;2496;52.468;13.342;2023-05-07T08:06:12;13.30;99.90
4962;DHT22;2496;52.468;13.342;2023-05-07T08:08:39;13.60;99.90
4962;DHT22;2496;52.468;13.342;2023-05-07T08:11:06;13.70;99.90
4962;DHT22;2496;52.468;13.342;2023-05-07T08:13:33;13.90;99.90
4962;DHT22;2496;52.468;13.342;2023-05-07T08:16:02;14.20;99.90
4962;DHT22;2496;52.468;13.342;2023-05-07T08:18:29;14.50;99.90
4962;DHT22;2496;52.468;13.342;2023-05-07T08:20:56;14.70;99.90
4962;DHT22;2496;52.468;13.342;2023-05-07T08:23:23;14.70;99.90
4962;DHT22;2496;52.468;13.342;2023-05-07T08:25:50;14.70;99.90
4962;DHT22;2496;52.468;13.342;2023-05-07T08:28:17;14.80;99.90
4962;DHT22;2496;52.468;13.342;2023-05-07T08:30:45;14.70;99.90
4962;DHT22;2496;52.468;13.342;2023-05-07T08:33:13;14.90;99.90
4962;DHT22;2496;52.468;13.342;2023-05-07T08:35:40;14.80;99.90
4962;DHT22;2496;52.468;13.342;2023-05-07T08:38:07;14.50;99.90
4962;DHT22;2496;52.468;13.342;2023-05-07T08:40:37;14.50;99.90
4962;DHT22;2496;52.468;13.342;2023-05-07T08:43:05;14.60;99.90
4962;DHT22;2496;52.468;13.342;2023-05-07T08:45:34;14.60;99.90
4962;DHT22;2496;52.468;13.342;2023-05-07T08:48:02;14.60;99.90
4962;DHT22;2496;52.468;13.342;2023-05-07T08:50:35;14.60;99.90
4962;DHT22;2496;52.468;13.342;2023-05-07T08:53:03;14.50;99.90
4962;DHT22;2496;52.468;13.342;2023-05-07T08:55:30;14.50;99.90
4962;DHT22;2496;52.468;13.342;2023-05-07T08:57:57;14.70;99.90
4962;DHT22;2496;52.468;13.342;2023-05-07T09:00:24;14.80;99.90
4962;DHT22;2496;52.468;13.342;2023-05-07T09:02:52;15.20;99.90
4962;DHT22;2496;52.468;13.342;2023-05-07T09:05:19;15.60;99.90
4962;DHT22;2496;52.468;13.342;2023-05-07T09:07:48;15.80;99.90
4962;DHT22;2496;52.468;13.342;2023-05-07T09:10:16;16.00;99.90
4962;DHT22;2496;52.468;13.342;2023-05-07T09:12:43;15.90;99.90
4962;DHT22;2496;52.468;13.342;2023-05-07T09:15:10;16.00;99.90
4962;DHT22;2496;52.468;13.342;2023-05-07T09:17:37;15.90;99.90
4962;DHT22;2496;52.468;13.342;2023-05-07T09:20:07;16.10;99.90
4962;DHT22;2496;52.468;13.342;2023-05-07T09:22:36;16.10;99.90
4962;DHT22;2496;52.468;13.342;2023-05-07T09:25:06;15.80;99.90
4962;DHT22;2496;52.468;13.342;2023-05-07T09:27:34;15.60;99.90
4962;DHT22;2496;52.468;13.342;2023-05-07T09:30:03;15.20;99.90
4962;DHT22;2496;52.468;13.342;2023-05-07T09:32:35;15.40;99.90
4962;DHT22;2496;52.468;13.342;2023-05-07T09:35:02;15.00;99.90
4962;DHT22;2496;52.468;13.342;2023-05-07T09:37:31;14.60;99.90
4962;DHT22;2496;52.468;13.342;2023-05-07T09:39:58;14.70;99.90
4962;DHT22;2496;52.468;13.342;2023-05-07T09:42:27;14.90;99.90
4962;DHT22;2496;52.468;13.342;2023-05-07T09:44:54;15.00;99.90
4962;DHT22;2496;52.468;13.342;2023-05-07T09:47:23;14.80;99.90
4962;DHT22;2496;52.468;13.342;2023-05-07T09:49:54;14.50;99.90
4962;DHT22;2496;52.468;13.342;2023-05-07T09:52:23;14.40;99.90
4962;DHT22;2496;52.468;13.342;2023-05-07T09:54:50;14.40;99.90
4962;DHT22;2496;52.468;13.342;2023-05-07T09:57:19;14.40;99.90
4962;DHT22;2496;52.468;13.342;2023-05-07T09:59:49;14.30;99.90
4962;DHT22;2496;52.468;13.342;2023-05-07T10:02:18;14.20;99.90
4962;DHT22;2496;52.468;13.342;2023-05-07T10:04:46;14.10;99.90
4962;DHT22;2496;52.468;13.342;2023-05-07T10:07:16;13.80;99.90
4962;DHT22;2496;52.468;13.342;2023-05-07T10:09:43;13.90;99.90
4962;DHT22;2496;52.468;13.342;2023-05-07T10:12:12;14.00;99.90
4962;DHT22;2496;52.468;13.342;2023-05-07T10:14:39;14.10;99.90
4962;DHT22;2496;52.468;13.342;2023-05-07T10:17:08;14.00;99.90
4962;DHT22;2496;52.468;13.342;2023-05-07T10:19:38;14.00;99.90
4962;DHT22;2496;52.468;13.342;2023-05-07T10:22:06;13.90;99.90
4962;DHT22;2496;52.468;13.342;2023-05-07T10:24:35;13.90;99.90
4962;DHT22;2496;52.468;13.342;2023-05-07T10:27:05;13.90;99.90
4962;DHT22;2496;52.468;13.342;2023-05-07T10:29:37;13.80;99.90
4962;DHT22;2496;52.468;13.342;2023-05-07T10:32:25;13.70;99.90
4962;DHT22;2496;52.468;13.342;2023-05-07T10:35:01;14.00;99.90
4962;DHT22;2496;52.468;13.342;2023-05-07T10:37:29;14.30;99.90
4962;DHT22;2496;52.468;13.342;2023-05-07T10:39:56;14.40;99.90
4962;DHT22;2496;52.468;13.342;2023-05-07T10:42:24;14.40;99.90
4962;DHT22;2496;52.468;13.342;2023-05-07T10:44:51;14.40;99.90
4962;DHT22;2496;52.468;13.342;2023-05-07T10:47:19;14.30;99.90
4962;DHT22;2496;52.468;13.342;2023-05-07T10:50:20;14.30;99.90
4962;DHT22;2496;52.468;13.342;2023-05-07T10:56:26;14.20;99.90
4962;DHT22;2496;52.468;13.342;2023-05-07T10:58:54;14.20;99.90
4962;DHT22;2496;52.468;13.342;2023-05-07T11:01:49;14.30;99.90
4962;DHT22;2496;52.468;13.342;2023-05-07T11:04:18;14.20;99.90
4962;DHT22;2496;52.468;13.342;2023-05-07T11:09:58;14.50;99.90
4962;DHT22;2496;52.468;13.342;2023-05-07T11:12:56;14.70;99.90
4962;DHT22;2496;52.468;13.342;2023-05-07T11:15:41;14.70;99.90
4962;DHT22;2496;52.468;13.342;2023-05-07T11:18:09;14.60;99.90
4962;DHT22;2496;52.468;13.342;2023-05-07T11:21:02;14.70;99.90
4962;DHT22;2496;52.468;13.342;2023-05-07T11:23:55;14.80;99.90
4962;DHT22;2496;52.468;13.342;2023-05-07T11:26:23;14.80;99.90
4962;DHT22;2496;52.468;13.342;2023-05-07T11:28:51;14.90;99.90
4962;DHT22;2496;52.468;13.342;2023-05-07T11:31:22;14.90;99.90
4962;DHT22;2496;52.468;13.342;2023-05-07T11:33:50;14.70;99.90
4962;DHT22;2496;52.468;13.342;2023-05-07T11:36:18;14.50;99.90
4962;DHT22;2496;52.468;13.342;2023-05-07T11:38:46;14.50;99.90
4962;DHT22;2496;52.468;13.342;2023-05-07T11:41:13;14.50;99.90
4962;DHT22;2496;52.468;13.342;2023-05-07T11:43:54;14.50;99.90
4962;DHT22;2496;52.468;13.342;2023-05-07T11:46:21;14.50;99.90
4962;DHT22;2496;52.468;13.342;2023-05-07T11:48:48;14.50;99.90
4962;DHT22;2496;52.468;13.342;2023-05-07T11:51:21;14.60;99.90
4962;DHT22;2496;52.468;13.342;2023-05-07T11:53:48;14.70;99.90
4962;DHT22;2496;52.468;13.342;2023-05-07T11:56:17;14.80;99.90
4962;DHT22;2496;52.468;13.342;2023-05-07T11:58:45;15.00;99.90
4962;DHT22;2496;52.468;13.342;2023-05-07T12:01:15;15.30;99.90
4962;DHT22;2496;52.468;13.342;2023-05-07T12:03:45;15.50;99.50
4962;DHT22;2496;52.468;13.342;2023-05-07T12:06:14;15.50;99.10
4962;DHT22;2496;52.468;13.342;2023-05-07T12:08:43;15.60;99.10
4962;DHT22;2496;52.468;13.342;2023-05-07T12:11:14;15.60;98.80
4962;DHT22;2496;52.468;13.342;2023-05-07T12:13:43;15.60;99.10
4962;DHT22;2496;52.468;13.342;2023-05-07T12:16:11;15.70;99.70
4962;DHT22;2496;52.468;13.342;2023-05-07T12:18:38;15.80;99.40
4962;DHT22;2496;52.468;13.342;2023-05-07T12:21:06;15.80;98.50
4962;DHT22;2496;52.468;13.342;2023-05-07T12:23:34;15.90;98.30
4962;DHT22;2496;52.468;13.342;2023-05-07T12:26:04;15.70;98.40
4962;DHT22;2496;52.468;13.342;2023-05-07T12:28:32;15.60;98.60
4962;DHT22;2496;52.468;13.342;2023-05-07T12:31:03;15.80;98.70
4962;DHT22;2496;52.468;13.342;2023-05-07T12:33:31;16.00;98.30
4962;DHT22;2496;52.468;13.342;2023-05-07T12:35:58;16.10;98.50
4962;DHT22;2496;52.468;13.342;2023-05-07T12:38:35;15.90;98.10
4962;DHT22;2496;52.468;13.342;2023-05-07T12:41:04;15.70;98.40
4962;DHT22;2496;52.468;13.342;2023-05-07T12:43:32;15.50;98.60
4962;DHT22;2496;52.468;13.342;2023-05-07T12:46:01;15.40;99.00
4962;DHT22;2496;52.468;13.342;2023-05-07T12:48:28;15.40;98.70
4962;DHT22;2496;52.468;13.342;2023-05-07T12:50:56;15.40;98.90
4962;DHT22;2496;52.468;13.342;2023-05-07T12:53:25;15.30;98.30
4962;DHT22;2496;52.468;13.342;2023-05-07T12:55:54;15.30;98.80
4962;DHT22;2496;52.468;13.342;2023-05-07T12:58:26;15.30;98.90
4962;DHT22;2496;52.468;13.342;2023-05-07T13:00:53;15.50;99.10
4962;DHT22;2496;52.468;13.342;2023-05-07T13:03:25;15.60;98.70
4962;DHT22;2496;52.468;13.342;2023-05-07T13:05:52;15.60;98.60
4962;DHT22;2496;52.468;13.342;2023-05-07T13:08:25;15.60;99.10
4962;DHT22;2496;52.468;13.342;2023-05-07T13:10:52;15.70;98.70
4962;DHT22;2496;52.468;13.342;2023-05-07T13:13:19;15.50;98.40
4962;DHT22;2496;52.468;13.342;2023-05-07T13:15:48;15.50;98.70
4962;DHT22;2496;52.468;13.342;2023-05-07T13:18:15;15.40;98.80
4962;DHT22;2496;52.468;13.342;2023-05-07T13:20:42;15.40;98.80
4962;DHT22;2496;52.468;13.342;2023-05-07T13:23:09;15.30;98.50
4962;DHT22;2496;52.468;13.342;2023-05-07T13:25:36;15.30;98.50
4962;DHT22;2496;52.468;13.342;2023-05-07T13:28:03;15.20;98.10
4962;DHT22;2496;52.468;13.342;2023-05-07T13:30:30;15.20;98.20
4962;DHT22;2496;52.468;13.342;2023-05-07T13:32:58;15.20;98.60
4962;DHT22;2496;52.468;13.342;2023-05-07T13:35:26;15.30;98.60
4962;DHT22;2496;52.468;13.342;2023-05-07T13:37:53;15.60;98.00
4962;DHT22;2496;52.468;13.342;2023-05-07T13:40:21;15.80;97.00
4962;DHT22;2496;52.468;13.342;2023-05-07T13:42:48;15.90;96.90
4962;DHT22;2496;52.468;13.342;2023-05-07T13:45:16;16.00;96.80
4962;DHT22;2496;52.468;13.342;2023-05-07T13:47:43;16.10;96.40
4962;DHT22;2496;52.468;13.342;2023-05-07T13:50:11;16.10;96.00
4962;DHT22;2496;52.468;13.342;2023-05-07T13:52:41;16.10;96.30
4962;DHT22;2496;52.468;13.342;2023-05-07T13:55:09;16.00;96.80
4962;DHT22;2496;52.468;13.342;2023-05-07T13:57:36;15.90;96.70
4962;DHT22;2496;52.468;13.342;2023-05-07T14:00:04;15.90;96.80
4962;DHT22;2496;52.468;13.342;2023-05-07T14:02:31;15.90;96.60
4962;DHT22;2496;52.468;13.342;2023-05-07T14:04:58;16.00;96.40
4962;DHT22;2496;52.468;13.342;2023-05-07T14:07:27;15.90;96.40
4962;DHT22;2496;52.468;13.342;2023-05-07T14:09:54;15.80;96.50
4962;DHT22;2496;52.468;13.342;2023-05-07T14:12:21;15.60;96.60
4962;DHT22;2496;52.468;13.342;2023-05-07T14:14:48;15.60;96.40
4962;DHT22;2496;52.468;13.342;2023-05-07T14:17:16;15.60;96.70
4962;DHT22;2496;52.468;13.342;2023-05-07T14:19:43;15.50;97.00
4962;DHT22;2496;52.468;13.342;2023-05-07T14:22:11;15.50;96.90
4962;DHT22;2496;52.468;13.342;2023-05-07T14:24:39;15.40;97.10
4962;DHT22;2496;52.468;13.342;2023-05-07T14:27:06;15.30;97.40
4962;DHT22;2496;52.468;13.342;2023-05-07T14:29:33;15.20;97.40
4962;DHT22;2496;52.468;13.342;2023-05-07T14:32:02;15.20;97.70
4962;DHT22;2496;52.468;13.342;2023-05-07T14:34:32;15.20;97.10
4962;DHT22;2496;52.468;13.342;2023-05-07T14:37:00;15.00;97.30
4962;DHT22;2496;52.468;13.342;2023-05-07T14:39:27;15.00;97.70
4962;DHT22;2496;52.468;13.342;2023-05-07T14:41:57;15.00;97.30
4962;DHT22;2496;52.468;13.342;2023-05-07T14:44:24;15.10;97.50
4962;DHT22;2496;52.468;13.342;2023-05-07T14:46:51;15.20;97.30
4962;DHT22;2496;52.468;13.342;2023-05-07T14:49:18;15.40;96.60
4962;DHT22;2496;52.468;13.342;2023-05-07T14:51:46;15.40;96.80
4962;DHT22;2496;52.468;13.342;2023-05-07T14:54:13;15.30;97.10
4962;DHT22;2496;52.468;13.342;2023-05-07T14:56:41;15.30;97.30
4962;DHT22;2496;52.468;13.342;2023-05-07T14:59:09;15.30;97.40
4962;DHT22;2496;52.468;13.342;2023-05-07T15:01:37;15.30;96.70
4962;DHT22;2496;52.468;13.342;2023-05-07T15:04:06;15.40;96.70
4962;DHT22;2496;52.468;13.342;2023-05-07T15:06:34;15.60;97.10
4962;DHT22;2496;52.468;13.342;2023-05-07T15:09:01;15.70;96.50
4962;DHT22;2496;52.468;13.342;2023-05-07T15:11:28;15.90;96.40
4962;DHT22;2496;52.468;13.342;2023-05-07T15:13:55;16.00;96.40
4962;DHT22;2496;52.468;13.342;2023-05-07T15:16:24;16.20;96.60
4962;DHT22;2496;52.468;13.342;2023-05-07T15:18:51;16.40;96.90
4962;DHT22;2496;52.468;13.342;2023-05-07T15:21:17;16.40;96.40
4962;DHT22;2496;52.468;13.342;2023-05-07T15:23:45;16.40;96.10
4962;DHT22;2496;52.468;13.342;2023-05-07T15:26:12;16.40;95.50
4962;DHT22;2496;52.468;13.342;2023-05-07T15:28:39;16.40;95.90
4962;DHT22;2496;52.468;13.342;2023-05-07T15:31:06;16.40;96.00
4962;DHT22;2496;52.468;13.342;2023-05-07T15:33:34;16.40;96.10
4962;DHT22;2496;52.468;13.342;2023-05-07T15:36:01;16.20;95.70
4962;DHT22;2496;52.468;13.342;2023-05-07T15:38:29;16.20;95.50
4962;DHT22;2496;52.468;13.342;2023-05-07T15:40:56;16.20;95.60
4962;DHT22;2496;52.468;13.342;2023-05-07T15:43:23;16.20;96.10
4962;DHT22;2496;52.468;13.342;2023-05-07T15:45:51;16.30;96.20
4962;DHT22;2496;52.468;13.342;2023-05-07T15:48:18;16.30;95.80
4962;DHT22;2496;52.468;13.342;2023-05-07T15:50:47;16.20;95.50
4962;DHT22;2496;52.468;13.342;2023-05-07T15:53:14;16.20;95.40
4962;DHT22;2496;52.468;13.342;2023-05-07T15:55:42;16.00;95.70
4962;DHT22;2496;52.468;13.342;2023-05-07T15:58:09;16.00;95.50
4962;DHT22;2496;52.468;13.342;2023-05-07T16:00:37;16.00;95.80
4962;DHT22;2496;52.468;13.342;2023-05-07T16:03:06;15.90;95.90
4962;DHT22;2496;52.468;13.342;2023-05-07T16:05:33;15.90;96.20